Time;durP1;ratioP1;P1;durP2;ratioP2;P2;SDS_P1;SDS_P2;PMS_P1;PMS_P2;Temp;Humidity;BMP_temperature;BMP_pressure;BME280_temperature;BME280_humidity;BME280_pressure;Samples;Min_cycle;Max_cycle;Signal;HPM_P1;HPM_P2
2022/01/23 00:05:05;;;;;;;1.10;0.50;;;17.40;63.20;;;;;;10448731;28;20213;-67
2022/01/23 00:10:27;;;;;;;0.83;0.40;;;17.40;63.20;;;;;;10471250;28;20698;-67
2022/01/23 00:21:33;;;;;;;0.40;0.30;;;17.40;63.20;;;;;;10466590;28;20231;-68
2022/01/23 00:32:36;;;;;;;0.47;0.47;;;17.40;63.20;;;;;;10460307;28;20212;-68
2022/01/23 00:37:59;;;;;;;0.63;0.30;;;17.40;63.10;;;;;;10452427;28;20702;-68
2022/01/23 00:43:28;;;;;;;0.77;0.50;;;17.40;63.20;;;;;;10454160;28;20221;-68
2022/01/23 00:49:24;;;;;;;0.30;0.30;;;17.40;63.10;;;;;;10452085;28;20233;-68
2022/01/23 00:54:45;;;;;;;0.30;0.30;;;17.40;63.10;;;;;;10452526;28;20217;-68
2022/01/23 01:00:09;;;;;;;0.50;0.40;;;17.40;63.20;;;;;;10452297;28;20193;-68
2022/01/23 01:05:33;;;;;;;0.70;0.40;;;17.40;63.20;;;;;;10451825;28;20303;-68
2022/01/23 01:11:08;;;;;;;0.30;0.30;;;17.40;63.20;;;;;;10453245;28;20569;-68
2022/01/23 01:16:52;;;;;;;0.67;0.50;;;17.40;63.70;;;;;;10452966;28;20189;-68
2022/01/23 01:33:46;;;;;;;1.20;0.40;;;17.40;63.20;;;;;;10406064;28;20757;-68
2022/01/23 01:39:10;;;;;;;0.70;0.40;;;17.40;63.20;;;;;;10452343;28;20196;-68
2022/01/23 01:44:32;;;;;;;0.40;0.27;;;17.40;63.20;;;;;;10450820;28;20224;-68
2022/01/23 01:49:54;;;;;;;0.40;0.40;;;17.40;63.20;;;;;;10451340;28;20201;-68
2022/01/23 01:55:24;;;;;;;0.60;0.40;;;17.40;63.20;;;;;;10461924;28;20213;-67
2022/01/23 02:00:54;;;;;;;0.47;0.47;;;17.40;63.70;;;;;;10453677;28;20276;-67
2022/01/23 02:12:15;;;;;;;0.80;0.40;;;17.40;63.20;;;;;;10454427;28;20721;-67
2022/01/23 02:17:55;;;;;;;0.30;0.30;;;17.40;63.20;;;;;;10459764;28;20189;-68
2022/01/23 02:23:41;;;;;;;0.53;0.30;;;17.40;63.20;;;;;;10460327;28;20209;-67
2022/01/23 02:52:02;;;;;;;0.50;0.30;;;17.40;63.20;;;;;;10452508;28;20221;-67
2022/01/23 02:57:50;;;;;;;0.40;0.40;;;17.30;63.20;;;;;;10458010;28;20189;-68
2022/01/23 03:03:15;;;;;;;0.50;0.30;;;17.40;63.20;;;;;;10456568;28;20588;-67
2022/01/23 03:09:00;;;;;;;0.50;0.30;;;17.40;63.20;;;;;;10456957;28;20225;-67
2022/01/23 03:14:39;;;;;;;0.50;0.30;;;17.40;63.20;;;;;;10457216;28;20209;-67
2022/01/23 03:31:24;;;;;;;1.10;0.40;;;17.30;63.20;;;;;;10458668;28;20227;-68
2022/01/23 03:36:47;;;;;;;0.40;0.30;;;17.30;63.10;;;;;;10469963;28;20273;-67
2022/01/23 03:42:10;;;;;;;0.40;0.40;;;17.40;63.20;;;;;;10444494;28;20236;-67
2022/01/23 03:47:37;;;;;;;0.80;0.37;;;17.40;63.20;;;;;;10455397;28;20213;-68
2022/01/23 03:52:59;;;;;;;0.20;0.20;;;17.40;63.20;;;;;;10461541;28;20204;-67
2022/01/23 03:58:21;;;;;;;0.60;0.30;;;17.40;63.20;;;;;;10481557;28;20687;-67
2022/01/23 04:03:45;;;;;;;0.30;0.23;;;17.30;63.10;;;;;;10455242;28;20606;-68
2022/01/23 04:09:07;;;;;;;0.60;0.40;;;17.40;63.20;;;;;;10453343;28;20295;-67
2022/01/23 04:14:30;;;;;;;0.53;0.27;;;17.30;63.20;;;;;;10454962;28;20209;-67
2022/01/23 04:20:04;;;;;;;0.27;0.20;;;17.40;63.20;;;;;;10454766;28;20212;-67
2022/01/23 04:59:36;;;;;;;0.87;0.47;;;17.30;63.20;;;;;;10451782;28;20564;-68
2022/01/23 05:04:58;;;;;;;0.30;0.30;;;17.30;63.20;;;;;;10453359;28;20213;-67
2022/01/23 05:10:22;;;;;;;0.40;0.30;;;17.30;63.30;;;;;;10452157;28;20275;-67
2022/01/23 05:15:44;;;;;;;0.57;0.43;;;17.30;63.20;;;;;;10430485;28;20580;-67
2022/01/23 05:21:24;;;;;;;0.67;0.30;;;17.40;63.30;;;;;;10451435;28;20201;-68
2022/01/23 05:26:48;;;;;;;0.67;0.30;;;17.40;63.30;;;;;;10461081;28;20217;-68
2022/01/23 05:32:12;;;;;;;0.57;0.30;;;17.40;63.30;;;;;;10450920;28;20213;-68
2022/01/23 05:37:34;;;;;;;0.60;0.20;;;17.40;63.30;;;;;;10452575;28;20735;-68
2022/01/23 05:42:58;;;;;;;0.30;0.20;;;17.30;63.20;;;;;;10471980;22;20717;-69
2022/01/23 05:48:21;;;;;;;0.30;0.20;;;17.40;63.30;;;;;;10492962;28;20216;-69
2022/01/23 05:53:43;;;;;;;0.53;0.30;;;17.30;63.20;;;;;;10493596;28;20216;-68
2022/01/23 05:59:06;;;;;;;0.20;0.20;;;17.30;63.20;;;;;;10490169;28;20211;-68
2022/01/23 06:04:28;;;;;;;0.60;0.20;;;17.40;63.30;;;;;;10493136;28;20223;-69
2022/01/23 06:09:51;;;;;;;1.70;0.30;;;17.40;63.30;;;;;;10486539;28;20675;-68
2022/01/23 06:15:15;;;;;;;0.47;0.30;;;17.40;63.30;;;;;;10492272;28;20769;-69
2022/01/23 06:20:37;;;;;;;0.27;0.27;;;17.40;63.30;;;;;;10471733;28;20196;-68
2022/01/23 06:26:00;;;;;;;0.40;0.30;;;17.40;63.30;;;;;;10490932;28;20216;-69
2022/01/23 06:31:23;;;;;;;0.40;0.20;;;17.40;63.20;;;;;;10491049;28;20207;-69
2022/01/23 06:36:48;;;;;;;0.10;0.10;;;17.40;63.20;;;;;;10491733;28;20212;-69
2022/01/23 06:42:11;;;;;;;0.20;0.20;;;17.40;63.30;;;;;;10492627;28;20192;-68
2022/01/23 06:47:34;;;;;;;0.20;0.20;;;17.40;63.20;;;;;;10492021;28;20706;-69
2022/01/23 06:52:56;;;;;;;0.20;0.20;;;17.40;63.20;;;;;;10497567;28;20212;-69
2022/01/23 06:58:19;;;;;;;0.10;0.10;;;17.40;63.20;;;;;;10498910;28;20189;-69
2022/01/23 07:03:42;;;;;;;0.20;0.20;;;17.40;63.20;;;;;;10497948;28;20227;-68
2022/01/23 07:09:04;;;;;;;0.47;0.23;;;17.40;63.20;;;;;;10498021;28;20220;-68
2022/01/23 07:14:26;;;;;;;0.40;0.30;;;17.40;63.20;;;;;;10497608;28;20216;-68
2022/01/23 07:19:50;;;;;;;0.07;0.07;;;17.40;63.30;;;;;;10495458;28;20655;-69
2022/01/23 07:25:12;;;;;;;0.20;0.20;;;17.40;63.30;;;;;;10505536;28;20247;-68
2022/01/23 07:30:38;;;;;;;0.30;0.20;;;17.40;63.30;;;;;;10497235;28;20208;-68
2022/01/23 07:36:02;;;;;;;0.20;0.20;;;17.40;63.30;;;;;;10496054;28;20209;-68
2022/01/23 07:41:24;;;;;;;0.53;0.20;;;17.40;63.30;;;;;;10497969;28;20287;-68
2022/01/23 07:46:47;;;;;;;0.20;0.20;;;17.40;63.30;;;;;;10496369;28;20568;-69
2022/01/23 07:52:10;;;;;;;0.10;0.10;;;17.40;63.30;;;;;;10496742;28;20203;-67
2022/01/23 07:57:33;;;;;;;0.13;0.13;;;17.40;63.30;;;;;;10494221;28;20690;-67
2022/01/23 08:02:55;;;;;;;0.27;0.10;;;17.40;63.40;;;;;;10493656;28;20598;-68
2022/01/23 08:08:18;;;;;;;0.33;0.20;;;17.40;63.30;;;;;;10495851;28;20675;-68
2022/01/23 08:13:40;;;;;;;0.27;0.20;;;17.40;63.30;;;;;;10495402;28;20219;-68
2022/01/23 08:19:02;;;;;;;0.67;0.27;;;17.40;63.40;;;;;;10496453;28;20668;-67
2022/01/23 08:24:26;;;;;;;0.33;0.20;;;17.50;63.40;;;;;;10494076;28;20223;-67
2022/01/23 08:29:48;;;;;;;0.40;0.10;;;17.40;63.40;;;;;;10495079;28;20228;-67
2022/01/23 08:35:10;;;;;;;0.30;0.30;;;17.50;63.50;;;;;;10504610;28;20563;-67
2022/01/23 08:40:48;;;;;;;0.20;0.20;;;17.40;63.40;;;;;;10502276;28;20200;-67
2022/01/23 08:46:10;;;;;;;0.37;0.20;;;17.40;63.50;;;;;;10493203;28;20254;-67
2022/01/23 08:51:32;;;;;;;0.10;0.10;;;17.50;63.50;;;;;;10485598;28;20668;-67
2022/01/23 08:56:56;;;;;;;0.30;0.20;;;17.40;63.50;;;;;;10494361;28;20204;-67
2022/01/23 09:02:19;;;;;;;0.20;0.20;;;17.50;63.50;;;;;;10493989;28;20193;-67
2022/01/23 09:07:41;;;;;;;0.53;0.33;;;17.50;63.50;;;;;;10476718;28;20224;-67
2022/01/23 09:13:11;;;;;;;0.70;0.30;;;17.40;63.40;;;;;;10490845;28;20215;-66
2022/01/23 09:18:34;;;;;;;0.40;0.40;;;17.40;63.40;;;;;;10489746;28;20181;-66
2022/01/23 09:23:56;;;;;;;2.43;1.00;;;17.50;63.50;;;;;;10491749;28;20695;-68
2022/01/23 09:29:28;;;;;;;1.43;0.90;;;17.50;63.50;;;;;;10462743;28;20224;-67
2022/01/23 09:34:52;;;;;;;0.90;0.73;;;17.50;63.50;;;;;;10495436;28;20211;-67
2022/01/23 09:40:14;;;;;;;1.40;1.10;;;17.50;63.50;;;;;;10500142;28;20245;-66
2022/01/23 09:45:39;;;;;;;1.00;0.90;;;17.50;63.60;;;;;;10499783;28;20216;-67
2022/01/23 09:51:03;;;;;;;1.90;1.50;;;17.40;63.50;;;;;;10492640;28;20686;-69
2022/01/23 09:56:28;;;;;;;3.70;1.20;;;17.50;63.60;;;;;;10493328;28;20212;-67
2022/01/23 10:01:55;;;;;;;1.77;1.50;;;17.40;63.50;;;;;;10491448;28;20204;-67
2022/01/23 10:07:18;;;;;;;2.23;1.70;;;17.50;63.60;;;;;;10493319;28;20212;-67
2022/01/23 10:12:41;;;;;;;2.93;1.43;;;17.40;63.60;;;;;;10490087;28;20219;-67
2022/01/23 10:18:05;;;;;;;1.80;1.60;;;17.40;63.60;;;;;;10495130;28;20192;-67
2022/01/23 10:23:28;;;;;;;2.70;1.60;;;17.50;63.60;;;;;;10501958;28;20240;-67
2022/01/23 10:28:51;;;;;;;2.63;2.05;;;17.50;63.60;;;;;;10498277;28;20449;-67
2022/01/23 10:34:15;;;;;;;2.97;2.23;;;17.90;62.30;;;;;;10497119;28;22552;-66
2022/01/23 10:39:41;;;;;;;3.93;2.10;;;17.70;62.90;;;;;;10489969;28;20196;-66
2022/01/23 10:50:51;;;;;;;3.72;2.40;;;17.50;63.30;;;;;;10486313;28;20422;-68
2022/01/23 10:56:14;;;;;;;22.35;5.65;;;17.90;62.30;;;;;;10493084;28;20414;-67
2022/01/23 11:01:37;;;;;;;21.60;5.07;;;18.60;60.40;;;;;;10480371;28;20571;-67
2022/01/23 11:07:02;;;;;;;13.93;4.60;;;18.10;62.00;;;;;;10494709;28;20216;-66
2022/01/23 11:12:43;;;;;;;6.67;3.30;;;17.90;62.70;;;;;;10498099;28;20216;-67
2022/01/23 11:18:08;;;;;;;7.50;3.00;;;17.80;63.10;;;;;;10499086;28;20193;-66
2022/01/23 11:23:34;;;;;;;10.53;3.63;;;17.80;63.30;;;;;;10498108;28;20220;-66
2022/01/23 11:28:57;;;;;;;11.47;3.57;;;17.70;63.50;;;;;;10496272;28;20217;-67
2022/01/23 11:34:22;;;;;;;6.27;3.30;;;17.70;63.70;;;;;;10497727;28;20220;-67
2022/01/23 11:39:50;;;;;;;5.77;3.00;;;17.70;63.70;;;;;;10496583;28;20200;-66
2022/01/23 11:56:42;;;;;;;5.67;2.07;;;17.70;63.80;;;;;;10490084;28;20213;-70
2022/01/23 12:02:36;;;;;;;4.50;2.07;;;17.70;63.70;;;;;;10480847;28;20193;-69
2022/01/23 12:08:30;;;;;;;6.77;2.23;;;17.70;63.70;;;;;;10490198;28;20303;-69
2022/01/23 12:20:02;;;;;;;3.83;2.27;;;17.70;63.70;;;;;;10513311;28;20199;-69
2022/01/23 12:25:30;;;;;;;3.28;1.90;;;17.70;63.90;;;;;;10525398;28;20463;-69
2022/01/23 12:30:56;;;;;;;3.57;1.73;;;18.20;62.20;;;;;;10494841;28;20193;-69
2022/01/23 12:36:24;;;;;;;3.37;1.87;;;17.80;63.30;;;;;;10495615;28;20219;-68
2022/01/23 12:41:59;;;;;;;4.73;2.10;;;17.60;63.80;;;;;;10500533;28;20197;-68
2022/01/23 12:47:23;;;;;;;3.63;1.50;;;17.60;64.10;;;;;;10495217;28;20256;-67
2022/01/23 12:52:50;;;;;;;2.87;1.60;;;17.60;64.30;;;;;;10494543;28;20216;-67
2022/01/23 12:58:13;;;;;;;4.77;1.90;;;17.60;64.30;;;;;;10495276;28;20665;-67
2022/01/23 13:03:38;;;;;;;2.03;1.40;;;17.60;64.40;;;;;;10490815;28;20297;-67
2022/01/23 13:09:14;;;;;;;1.77;1.20;;;17.60;64.30;;;;;;10491054;28;20216;-67
2022/01/23 13:14:45;;;;;;;2.33;1.43;;;17.60;64.10;;;;;;10494047;28;20801;-67
2022/01/23 13:31:52;;;;;;;1.47;1.13;;;17.60;64.30;;;;;;10487345;28;20724;-67
2022/01/23 13:37:18;;;;;;;1.67;1.00;;;17.60;64.40;;;;;;10490299;28;20231;-67
2022/01/23 13:42:54;;;;;;;1.97;1.37;;;17.60;64.40;;;;;;10488161;28;20221;-67
2022/01/23 13:59:51;;;;;;;4.00;1.30;;;17.60;64.50;;;;;;10473375;28;20722;-67
2022/01/23 14:05:15;;;;;;;2.37;1.23;;;17.60;64.60;;;;;;10474664;28;20564;-70
2022/01/23 14:10:39;;;;;;;1.90;1.17;;;17.50;64.70;;;;;;10483560;28;20215;-69
2022/01/23 14:16:01;;;;;;;2.23;0.90;;;17.50;64.80;;;;;;10499750;28;20334;-69
2022/01/23 14:21:26;;;;;;;1.90;1.13;;;17.50;64.90;;;;;;10458853;28;20189;-69
2022/01/23 14:27:06;;;;;;;2.13;1.10;;;17.50;65.00;;;;;;10489421;28;20216;-69
2022/01/23 14:32:34;;;;;;;3.20;1.00;;;17.50;64.90;;;;;;10499840;28;20197;-69
2022/01/23 14:38:09;;;;;;;1.10;0.83;;;17.40;65.00;;;;;;10498112;28;20707;-69
2022/01/23 14:43:36;;;;;;;3.80;0.90;;;17.40;65.00;;;;;;10502277;28;20227;-69
2022/01/23 14:49:10;;;;;;;1.87;0.90;;;17.40;65.10;;;;;;10498268;28;20690;-69
2022/01/23 14:54:33;;;;;;;0.93;0.70;;;17.40;65.10;;;;;;10528095;28;20272;-69
2022/01/23 15:00:00;;;;;;;2.03;1.00;;;17.50;65.30;;;;;;10507117;28;20207;-70
2022/01/23 15:05:22;;;;;;;1.77;1.00;;;17.40;65.10;;;;;;10499626;28;20821;-69
2022/01/23 15:10:45;;;;;;;2.47;0.90;;;17.50;65.20;;;;;;10498723;28;20219;-69
2022/01/23 15:16:09;;;;;;;1.27;0.90;;;17.50;65.20;;;;;;10499292;28;20244;-69
2022/01/23 15:21:31;;;;;;;1.53;0.87;;;17.50;65.20;;;;;;10498014;28;20193;-69
2022/01/23 15:26:53;;;;;;;2.73;1.07;;;17.50;65.10;;;;;;10494679;28;20231;-68
2022/01/23 15:32:17;;;;;;;1.67;1.00;;;17.50;65.10;;;;;;10495269;28;20208;-69
2022/01/23 15:37:40;;;;;;;1.60;0.73;;;17.50;64.90;;;;;;10495792;28;20672;-69
2022/01/23 15:43:02;;;;;;;2.17;0.80;;;17.60;64.90;;;;;;10497064;28;20228;-69
2022/01/23 15:48:28;;;;;;;0.70;0.70;;;17.60;64.90;;;;;;10491398;28;20224;-69
2022/01/23 15:53:50;;;;;;;0.80;0.73;;;17.60;64.80;;;;;;10496075;28;20231;-68
2022/01/23 15:59:12;;;;;;;1.10;0.90;;;17.60;64.80;;;;;;10495940;28;20196;-69
2022/01/23 16:04:37;;;;;;;1.90;1.07;;;17.60;64.80;;;;;;10496759;28;20710;-69
2022/01/23 16:09:59;;;;;;;1.07;0.80;;;17.60;64.80;;;;;;10500686;28;20208;-69
2022/01/23 16:15:22;;;;;;;2.60;1.30;;;17.60;64.80;;;;;;10494298;28;20717;-69
2022/01/23 16:20:45;;;;;;;0.93;0.73;;;17.60;64.90;;;;;;10494762;28;20188;-69
2022/01/23 16:26:07;;;;;;;1.90;1.20;;;17.60;64.90;;;;;;10495182;28;20239;-69
2022/01/23 16:31:29;;;;;;;2.37;1.20;;;17.60;64.90;;;;;;10495444;28;20200;-70
2022/01/23 16:36:53;;;;;;;1.07;0.97;;;17.60;64.90;;;;;;10493742;28;20208;-68
2022/01/23 16:42:15;;;;;;;1.30;0.73;;;17.60;64.90;;;;;;10488547;28;20209;-69
2022/01/23 16:47:39;;;;;;;2.33;1.20;;;17.60;64.90;;;;;;10498611;28;20227;-69
2022/01/23 16:53:03;;;;;;;2.00;1.23;;;17.60;64.90;;;;;;10484797;28;20649;-69
2022/01/23 16:58:25;;;;;;;1.33;1.03;;;17.60;64.90;;;;;;10490913;28;20216;-69
2022/01/23 17:03:47;;;;;;;3.60;2.00;;;17.60;64.90;;;;;;10527513;28;20594;-68
2022/01/23 17:09:11;;;;;;;2.67;1.90;;;17.60;65.00;;;;;;10501627;28;20701;-69
2022/01/23 17:14:33;;;;;;;2.83;2.07;;;17.60;64.90;;;;;;10493522;28;20227;-69
2022/01/23 17:19:55;;;;;;;3.20;1.97;;;17.60;64.80;;;;;;10491631;28;20188;-70
2022/01/23 17:25:19;;;;;;;2.83;1.87;;;17.60;64.80;;;;;;10492596;28;20757;-70
2022/01/23 17:30:41;;;;;;;2.37;1.80;;;17.60;64.80;;;;;;10490152;28;20208;-70
2022/01/23 17:36:03;;;;;;;3.07;1.70;;;17.50;64.90;;;;;;10487213;28;20216;-70
2022/01/23 17:41:27;;;;;;;3.83;2.10;;;17.50;65.10;;;;;;10466575;28;20200;-69
2022/01/23 17:46:55;;;;;;;2.30;1.70;;;17.50;65.10;;;;;;10530300;22;20224;-68
2022/01/23 17:52:17;;;;;;;2.70;1.77;;;17.40;65.10;;;;;;10497628;28;20207;-68
2022/01/23 17:57:41;;;;;;;1.80;1.53;;;17.40;65.30;;;;;;10496213;28;20215;-68
2022/01/23 18:03:03;;;;;;;2.30;1.60;;;17.40;65.40;;;;;;10493350;28;20201;-69
2022/01/23 18:08:28;;;;;;;1.70;1.50;;;17.40;65.50;;;;;;10499299;28;20220;-69
2022/01/23 18:13:56;;;;;;;2.60;1.80;;;17.40;65.60;;;;;;10502719;28;20449;-67
2022/01/23 18:19:18;;;;;;;2.10;1.50;;;18.30;62.60;;;;;;10497941;28;20188;-68
2022/01/23 18:24:40;;;;;;;2.03;1.40;;;17.80;64.30;;;;;;10459495;28;20582;-69
2022/01/23 18:30:07;;;;;;;1.93;1.50;;;17.70;64.90;;;;;;10516037;28;20213;-68
2022/01/23 18:35:29;;;;;;;2.73;1.50;;;17.70;65.10;;;;;;10490836;28;20581;-69
2022/01/23 18:40:51;;;;;;;1.93;1.50;;;17.70;65.30;;;;;;10495611;28;20192;-69
2022/01/23 18:46:15;;;;;;;2.58;1.45;;;17.70;65.40;;;;;;10519852;28;20454;-68
2022/01/23 18:51:38;;;;;;;2.60;1.20;;;18.60;62.20;;;;;;10474870;28;20231;-68
2022/01/23 18:57:04;;;;;;;1.80;1.30;;;18.00;64.10;;;;;;10498704;28;20345;-66
2022/01/23 19:02:32;;;;;;;1.50;1.30;;;17.80;64.90;;;;;;10495720;28;20196;-68
2022/01/23 19:08:00;;;;;;;1.37;1.10;;;17.70;65.30;;;;;;10499514;28;20295;-68
2022/01/23 19:13:22;;;;;;;1.90;1.47;;;17.70;65.40;;;;;;10501012;28;20698;-68
2022/01/23 19:18:46;;;;;;;1.20;1.10;;;17.60;65.40;;;;;;10505192;28;20195;-65
2022/01/23 19:24:09;;;;;;;1.53;1.27;;;17.60;65.40;;;;;;10498991;28;20220;-67
2022/01/23 19:29:33;;;;;;;1.50;1.23;;;17.60;65.40;;;;;;10496607;28;20215;-67
2022/01/23 19:34:57;;;;;;;1.63;1.13;;;17.60;65.40;;;;;;10496600;28;20687;-68
2022/01/23 19:40:24;;;;;;;1.47;1.30;;;17.60;65.40;;;;;;10496761;28;20195;-68
2022/01/23 19:45:49;;;;;;;1.47;1.00;;;17.60;65.40;;;;;;10498260;28;20687;-67
2022/01/23 19:51:13;;;;;;;1.97;1.50;;;17.60;65.40;;;;;;10495710;28;20215;-67
2022/01/23 19:56:35;;;;;;;1.47;1.30;;;17.60;65.40;;;;;;10495490;28;20216;-68
2022/01/23 20:01:57;;;;;;;2.10;1.37;;;17.60;65.40;;;;;;10492351;28;20185;-67
2022/01/23 20:07:24;;;;;;;1.37;1.27;;;17.60;65.30;;;;;;10493955;28;20219;-67
2022/01/23 20:12:46;;;;;;;2.07;1.27;;;17.60;65.30;;;;;;10492004;28;20185;-69
2022/01/23 20:18:09;;;;;;;1.97;1.30;;;17.60;65.40;;;;;;10493051;28;20184;-68
2022/01/23 20:23:32;;;;;;;2.10;1.70;;;17.60;65.30;;;;;;10492404;28;20221;-67
2022/01/23 20:28:54;;;;;;;1.90;1.50;;;17.60;65.30;;;;;;10498198;28;20212;-67
2022/01/23 20:34:17;;;;;;;1.87;1.30;;;17.60;65.30;;;;;;10494298;28;20595;-67
2022/01/23 20:39:40;;;;;;;2.30;1.30;;;17.60;65.30;;;;;;10491259;28;20188;-67
2022/01/23 20:45:03;;;;;;;2.23;1.40;;;17.60;65.30;;;;;;10483751;28;20228;-67
2022/01/23 20:50:31;;;;;;;2.43;1.57;;;17.60;65.30;;;;;;10494581;28;20212;-67
2022/01/23 20:55:54;;;;;;;1.43;1.20;;;17.60;65.30;;;;;;10494884;28;20316;-67
2022/01/23 21:01:17;;;;;;;2.50;1.30;;;17.60;65.20;;;;;;10492667;28;20212;-67
2022/01/23 21:06:39;;;;;;;1.30;1.20;;;17.60;65.30;;;;;;10493717;28;20220;-67
2022/01/23 21:12:02;;;;;;;1.30;1.20;;;17.60;65.20;;;;;;10489750;28;20683;-67
2022/01/23 21:17:35;;;;;;;1.97;1.60;;;17.60;65.20;;;;;;10492207;28;20212;-68
2022/01/23 21:23:23;;;;;;;1.77;1.50;;;17.60;65.20;;;;;;10489271;28;20189;-68
2022/01/23 21:40:20;;;;;;;1.60;1.50;;;17.60;65.20;;;;;;10484492;28;20234;-68
2022/01/23 21:45:45;;;;;;;2.10;1.03;;;17.60;65.30;;;;;;10484840;28;20247;-67
2022/01/23 21:51:08;;;;;;;1.30;1.20;;;17.60;65.30;;;;;;10490812;28;20220;-67
2022/01/23 21:56:30;;;;;;;2.37;1.60;;;17.60;65.30;;;;;;10491675;28;20211;-67
2022/01/23 22:01:53;;;;;;;1.47;1.20;;;17.60;65.30;;;;;;10488836;28;20586;-68
2022/01/23 22:07:15;;;;;;;1.83;1.23;;;17.50;65.20;;;;;;10490952;28;20223;-67
2022/01/23 22:13:08;;;;;;;1.10;1.00;;;17.50;65.20;;;;;;10490211;28;20193;-68
2022/01/23 22:18:34;;;;;;;1.20;1.10;;;17.50;65.30;;;;;;10497249;28;20625;-68
2022/01/23 22:29:36;;;;;;;1.27;1.07;;;17.50;65.30;;;;;;10498670;28;20209;-67
2022/01/23 22:35:00;;;;;;;1.10;1.00;;;17.50;65.30;;;;;;10500779;28;20220;-68
2022/01/23 22:40:22;;;;;;;4.17;1.00;;;17.50;65.30;;;;;;10497277;28;20207;-68
2022/01/23 22:45:59;;;;;;;1.13;1.00;;;17.50;65.30;;;;;;10498011;28;20232;-68
2022/01/23 22:51:24;;;;;;;1.20;1.00;;;17.50;65.30;;;;;;10499153;28;20231;-67
2022/01/23 22:56:46;;;;;;;1.40;1.10;;;17.50;65.30;;;;;;10495804;28;20208;-67
2022/01/23 23:02:09;;;;;;;1.07;0.97;;;17.50;65.30;;;;;;10496764;28;20216;-68
2022/01/23 23:07:34;;;;;;;1.90;1.10;;;17.50;65.30;;;;;;10496947;28;20208;-68
2022/01/23 23:12:56;;;;;;;1.07;0.97;;;17.50;65.20;;;;;;10492351;28;20583;-68
2022/01/23 23:18:18;;;;;;;1.73;1.20;;;17.50;65.20;;;;;;10503325;28;20225;-68
2022/01/23 23:23:41;;;;;;;1.03;1.00;;;17.50;65.20;;;;;;10499313;28;20696;-68
2022/01/23 23:29:05;;;;;;;1.80;1.10;;;17.50;65.20;;;;;;10497480;28;20220;-68
2022/01/23 23:34:28;;;;;;;0.93;0.90;;;17.50;65.20;;;;;;10496753;28;20220;-67
2022/01/23 23:39:56;;;;;;;0.77;0.77;;;17.50;65.20;;;;;;10496352;28;20272;-67
2022/01/23 23:45:19;;;;;;;1.37;1.00;;;17.50;65.20;;;;;;10502966;28;20224;-67
2022/01/23 23:50:42;;;;;;;0.87;0.87;;;17.50;65.20;;;;;;10525913;28;20215;-68
2022/01/23 23:56:06;;;;;;;1.43;1.00;;;17.50;65.20;;;;;;10538142;28;20220;-67
